الصفحة الرئيسية
METAR-TAF:

METAR-TAF

مطار :

مطار وارسو فريدريك شوبان

وارسو, بولندا

دائرة عرض: 52-10N, خط طول: 020-58E, ارتفاع: 106 متر

مراقبة الطقس الحالي

تاريخ ووقت الإصدار 29 دقيقة قبل الساعة 01:00UTC
ريح 3 عقدة من الشرق/الجنوب الشرقي
درجة الحرارة 7°درجة مئوية
الرطوبة 93%
ضغط 1022 hPa
الرؤية 10 كم أو أكثر
الغيوم لا تقل 1500 م ولا وجود لمزنة ركامية السحاب الأسود

METAR: EPWA 170100Z 11003KT CAVOK 07/06 Q1022 NOSIG

زمن: 03:29 (01:29 UTC)

توقعات

تاريخ ووقت الإصدار 1ساعة و 59 دقيقة قبل الساعة 23:30UTC
التوقعات صالحة من17 الساعة 00 UTC إلى 17 الساعة 24 UTC
ريح 5 عقدة من الجنوب الشرقي
الرؤية 10 كم أو أكثر
الغيوم لا تقل 1500 م ولا وجود لمزنة ركامية السحاب الأسود
أصبح
من 17 الساعة 00 UTC إلى 17 الساعة 02 UTC
الرؤية: 4000 متر
غشاء
نظرية الاحتمالات 30%
من 17 الساعة 02 UTC إلى 17 الساعة 06 UTC
الرؤية: 0600 متر
ضباب
أصبح
من 17 الساعة 06 UTC إلى 17 الساعة 08 UTC
الرؤية 10 كم أو أكثر
الغيوم لا تقل 1500 م ولا وجود لمزنة ركامية السحاب الأسود

TAF: EPWA 162330Z 1700/1724 13005KT CAVOK BECMG 1700/1702 4000 BR PROB30 1702/1706 0600 FG BECMG 1706/1708 CAVOK

أرصاد الطقس والتوقعات من أكثر من 4000 مطار (تقارير الطقس للمطار METAR والتنبؤ بالطقس بالمطارTAF).

المحطات المتاحة هي النقط الصفراء والحمراء على الخريطة.

حرك المؤشر فوق النقطة لمعرفة اسم المحطة.

ثم انقر لمعرفة أرصاد وتوقعات الطقس.

لتغيير الخارطة: اضغط على الأزرار الخضراء مع رمز الصليب الأسود للتكبير. على الزر الأخضر مع شرطة للتصغير، أو على الأسهم الخضراء للخرائط المجاورة.


METAR-TAF: